Time;durP1;ratioP1;P1;durP2;ratioP2;P2;SDS_P1;SDS_P2;PMS_P1;PMS_P2;Temp;Humidity;BMP_temperature;BMP_pressure;BME280_temperature;BME280_humidity;BME280_pressure;Samples;Min_cycle;Max_cycle;Signal;HPM_P1;HPM_P2
2022/11/15 00:01:29;;;;;;;29.27;16.25;;;;;;;8.30;83.63;100730.59;5082267;28;20027;-86
2022/11/15 00:03:54;;;;;;;31.48;17.35;;;;;;;8.29;84.45;100728.00;5070948;28;20023;-85
2022/11/15 00:06:19;;;;;;;31.13;16.35;;;;;;;8.38;84.18;100736.47;5084513;28;20019;-85
2022/11/15 00:08:45;;;;;;;26.67;14.32;;;;;;;8.43;84.13;100734.56;5087814;28;20162;-86
2022/11/15 00:11:12;;;;;;;29.58;16.27;;;;;;;8.45;83.96;100731.03;5081884;28;20028;-86
2022/11/15 00:13:37;;;;;;;25.17;14.88;;;;;;;8.50;83.40;100740.50;5069852;28;20028;-86
2022/11/15 00:16:04;;;;;;;22.15;12.57;;;;;;;8.55;83.67;100735.94;5064950;28;20024;-85
2022/11/15 00:18:30;;;;;;;22.67;13.27;;;;;;;8.54;83.46;100730.72;5072000;28;20028;-86
2022/11/15 00:21:02;;;;;;;28.25;15.68;;;;;;;8.60;83.57;100730.50;5084797;28;20039;-85
2022/11/15 00:23:27;;;;;;;25.85;14.93;;;;;;;8.65;83.75;100734.72;5089309;28;20039;-86
2022/11/15 00:25:57;;;;;;;28.52;15.00;;;;;;;8.71;83.78;100733.63;5088196;28;20479;-86
2022/11/15 00:28:23;;;;;;;30.25;15.75;;;;;;;8.75;84.03;100731.75;5071114;28;20298;-85
2022/11/15 00:30:48;;;;;;;32.33;15.70;;;;;;;8.78;83.60;100727.25;5084602;28;20075;-85
2022/11/15 00:33:14;;;;;;;30.75;15.43;;;;;;;8.81;83.31;100721.00;5091188;28;20047;-87
2022/11/15 00:35:39;;;;;;;24.98;14.38;;;;;;;8.82;83.32;100725.38;5073993;28;20035;-86
2022/11/15 00:38:04;;;;;;;26.08;14.27;;;;;;;8.76;83.30;100715.88;5087777;28;20491;-85
2022/11/15 00:40:30;;;;;;;30.48;15.80;;;;;;;8.79;84.47;100722.84;5089012;28;20043;-85
2022/11/15 00:42:55;;;;;;;23.60;13.88;;;;;;;8.92;83.49;100726.78;5073717;28;20016;-85
2022/11/15 00:45:21;;;;;;;28.73;15.73;;;;;;;8.97;83.90;100721.34;5091810;28;20031;-85
2022/11/15 00:47:46;;;;;;;27.70;14.85;;;;;;;9.00;83.24;100723.84;5092716;28;20040;-85
2022/11/15 00:50:12;;;;;;;28.50;16.50;;;;;;;9.05;83.72;100714.03;5069882;28;20020;-85
2022/11/15 00:52:37;;;;;;;28.33;16.60;;;;;;;9.01;83.41;100710.63;5092603;28;20133;-85
2022/11/15 00:55:03;;;;;;;27.85;16.00;;;;;;;9.06;84.36;100707.81;5072897;28;20114;-85
2022/11/15 00:57:28;;;;;;;22.60;14.55;;;;;;;9.12;83.93;100712.88;5069173;28;20505;-86
2022/11/15 00:59:54;;;;;;;27.58;15.20;;;;;;;9.17;83.79;100706.50;5065382;28;20107;-85
2022/11/15 01:02:19;;;;;;;25.63;14.63;;;;;;;9.18;83.23;100704.72;5090865;28;20475;-85
2022/11/15 01:04:44;;;;;;;26.17;15.20;;;;;;;9.23;83.86;100709.84;5090856;28;20035;-86
2022/11/15 01:07:10;;;;;;;26.55;15.00;;;;;;;9.23;84.13;100708.06;5089556;28;20024;-86
2022/11/15 01:09:35;;;;;;;27.10;15.27;;;;;;;9.30;83.75;100706.91;5088276;28;20481;-86
2022/11/15 01:12:00;;;;;;;23.05;14.68;;;;;;;9.30;84.35;100700.78;5067021;28;20530;-86
2022/11/15 01:14:26;;;;;;;27.42;15.48;;;;;;;9.36;84.36;100701.41;5072197;28;20051;-86
2022/11/15 01:16:51;;;;;;;26.20;15.20;;;;;;;9.37;84.57;100697.00;5067777;28;20039;-86
2022/11/15 01:19:16;;;;;;;26.00;15.45;;;;;;;9.39;85.12;100696.03;5088627;28;20035;-86
2022/11/15 01:21:42;;;;;;;26.67;15.40;;;;;;;9.49;84.43;100693.91;5085602;28;20474;-86
2022/11/15 01:24:11;;;;;;;27.55;15.52;;;;;;;9.46;84.90;100691.38;5092021;28;20072;-86
2022/11/15 01:26:36;;;;;;;23.63;14.60;;;;;;;9.38;84.30;100682.91;5089316;28;20065;-87
2022/11/15 01:29:02;;;;;;;25.60;15.10;;;;;;;9.42;84.42;100685.38;5090225;28;20063;-87
2022/11/15 01:31:28;;;;;;;25.25;14.57;;;;;;;9.46;84.64;100686.09;5087855;28;20127;-86
2022/11/15 01:33:53;;;;;;;25.17;14.52;;;;;;;9.48;84.61;100680.78;5073091;28;20104;-86
2022/11/15 01:36:24;;;;;;;23.13;14.32;;;;;;;9.41;84.67;100673.06;5064946;28;20033;-85
2022/11/15 01:38:54;;;;;;;23.80;14.27;;;;;;;9.46;85.14;100675.53;5071110;28;20499;-85
2022/11/15 01:41:26;;;;;;;25.05;14.65;;;;;;;9.50;85.00;100687.69;5084983;28;20028;-85
2022/11/15 01:43:54;;;;;;;24.17;15.63;;;;;;;9.51;85.43;100678.84;5089444;28;20024;-85
2022/11/15 01:46:28;;;;;;;22.25;13.93;;;;;;;9.52;85.13;100685.88;5076745;28;20028;-86
2022/11/15 01:48:55;;;;;;;24.08;14.77;;;;;;;9.55;85.12;100693.66;5065804;28;20132;-86
2022/11/15 01:51:24;;;;;;;25.88;14.32;;;;;;;9.55;85.33;100685.75;5084232;28;20024;-85
2022/11/15 01:53:54;;;;;;;26.38;15.07;;;;;;;9.59;85.32;100681.22;5090896;28;20040;-86
2022/11/15 01:56:24;;;;;;;24.90;14.75;;;;;;;9.60;85.70;100673.22;5068389;28;20028;-85
2022/11/15 01:58:52;;;;;;;28.38;15.55;;;;;;;9.73;85.70;100678.03;5090608;28;20494;-86
2022/11/15 02:01:17;;;;;;;27.00;14.50;;;;;;;9.70;85.65;100674.59;5087143;28;20111;-85
2022/11/15 02:03:51;;;;;;;25.20;15.35;;;;;;;9.80;85.36;100680.38;5071598;28;20136;-85
2022/11/15 02:06:18;;;;;;;26.88;15.02;;;;;;;9.92;85.10;100681.66;5068448;28;20546;-85
2022/11/15 02:08:44;;;;;;;28.20;15.98;;;;;;;9.97;85.34;100674.41;5070060;28;20406;-85
2022/11/15 02:11:09;;;;;;;24.80;15.15;;;;;;;10.04;85.56;100673.25;5085305;28;20020;-84
2022/11/15 02:13:36;;;;;;;25.48;15.43;;;;;;;10.07;85.46;100667.84;5067431;28;20169;-85
2022/11/15 02:16:26;;;;;;;23.52;14.75;;;;;;;10.12;85.46;100671.16;5066168;28;20081;-85
2022/11/15 02:18:59;;;;;;;27.90;15.98;;;;;;;10.16;86.47;100656.03;5069363;28;20038;-85
2022/11/15 02:21:41;;;;;;;25.58;14.93;;;;;;;10.23;85.33;100657.50;5054616;28;20034;-86
2022/11/15 02:24:40;;;;;;;25.02;15.50;;;;;;;10.31;85.54;100659.88;5088379;28;20020;-85
2022/11/15 02:27:27;;;;;;;24.13;15.20;;;;;;;10.37;85.96;100662.25;5077825;28;20583;-86
2022/11/15 02:30:36;;;;;;;25.80;15.35;;;;;;;10.45;86.34;100662.78;5085021;28;20104;-86
2022/11/15 02:33:15;;;;;;;27.55;15.82;;;;;;;10.48;86.20;100657.34;5043788;28;20044;-85
2022/11/15 02:35:53;;;;;;;30.55;15.95;;;;;;;10.44;86.47;100651.38;5084554;28;20034;-86
2022/11/15 02:38:44;;;;;;;30.38;17.13;;;;;;;10.58;86.94;100657.81;5088871;28;20032;-84
2022/11/15 02:41:16;;;;;;;23.83;15.02;;;;;;;10.66;86.90;100647.78;5045752;28;20078;-85
2022/11/15 02:43:57;;;;;;;32.38;16.52;;;;;;;10.63;86.91;100650.53;5083617;28;20024;-85
2022/11/15 02:49:28;;;;;;;30.38;16.40;;;;;;;10.73;87.06;100650.09;5084369;28;20147;-85
2022/11/15 02:51:55;;;;;;;26.67;15.65;;;;;;;10.75;86.78;100639.44;5086519;28;20020;-85
2022/11/15 02:54:23;;;;;;;29.60;16.92;;;;;;;10.82;87.24;100647.94;5068833;28;20032;-85
2022/11/15 02:56:50;;;;;;;27.58;16.52;;;;;;;10.82;86.99;100640.91;5080914;28;20085;-85
2022/11/15 02:59:44;;;;;;;25.48;16.38;;;;;;;10.96;87.12;100645.59;5087369;28;20251;-85
2022/11/15 03:02:43;;;;;;;29.17;16.02;;;;;;;11.01;86.24;100633.00;5071787;28;20035;-85
2022/11/15 03:05:46;;;;;;;28.58;16.77;;;;;;;10.99;87.21;100622.47;5068527;28;20020;-85
2022/11/15 03:08:29;;;;;;;;;;;;;;;11.16;85.09;100624.34;5083376;28;20062;-85
2022/11/15 03:10:55;;;;;;;26.45;15.52;;;;;;;11.05;85.77;100633.69;5078076;28;20023;-86
2022/11/15 03:14:11;;;;;;;25.60;15.00;;;;;;;11.08;85.33;100623.00;5084789;28;20098;-85
2022/11/15 03:16:40;;;;;;;23.90;13.88;;;;;;;10.99;86.26;100614.53;5044029;28;20769;-85
2022/11/15 03:19:19;;;;;;;26.38;16.70;;;;;;;11.05;86.07;100626.66;5066024;28;20050;-86
2022/11/15 03:21:47;;;;;;;22.58;13.93;;;;;;;11.05;86.53;100624.00;5078061;28;20276;-84
2022/11/15 03:24:15;;;;;;;25.60;16.35;;;;;;;11.13;86.81;100627.13;5085874;28;20103;-85
2022/11/15 03:26:44;;;;;;;28.23;16.67;;;;;;;11.20;86.56;100631.22;5063920;28;20532;-85
2022/11/15 03:29:14;;;;;;;24.98;15.75;;;;;;;11.20;85.76;100623.28;5067831;28;20020;-86
2022/11/15 03:31:48;;;;;;;28.80;15.90;;;;;;;11.30;86.29;100625.50;5070626;28;20437;-85
2022/11/15 03:34:28;;;;;;;21.73;14.68;;;;;;;11.37;85.56;100621.63;5086178;28;20047;-85
2022/11/15 03:36:54;;;;;;;29.40;16.45;;;;;;;11.28;86.20;100628.22;5081225;28;20032;-86
2022/11/15 03:39:21;;;;;;;27.00;17.75;;;;;;;11.31;86.71;100638.66;5086568;28;20036;-85
2022/11/15 03:42:14;;;;;;;26.27;15.65;;;;;;;11.30;86.53;100631.66;5086885;28;20057;-85
2022/11/15 03:44:53;;;;;;;28.25;16.65;;;;;;;11.29;86.48;100634.38;5063180;28;20509;-85
2022/11/15 03:47:27;;;;;;;28.17;17.67;;;;;;;11.37;86.17;100629.56;5088515;28;20584;-86
2022/11/15 03:49:59;;;;;;;27.60;18.15;;;;;;;11.29;86.96;100627.31;5078762;28;20102;-85
2022/11/15 03:52:24;;;;;;;29.45;17.33;;;;;;;11.35;86.58;100628.81;5087457;28;20038;-85
2022/11/15 03:54:53;;;;;;;31.42;18.75;;;;;;;11.34;86.83;100627.09;5085548;28;20474;-85
2022/11/15 03:57:18;;;;;;;28.98;16.58;;;;;;;11.34;86.19;100613.84;5072217;28;20387;-85
2022/11/15 03:59:44;;;;;;;30.75;17.70;;;;;;;11.37;86.68;100616.34;5077122;28;20029;-86
2022/11/15 04:02:09;;;;;;;38.13;18.70;;;;;;;11.35;86.87;100615.56;5087918;28;20479;-85
2022/11/15 04:04:35;;;;;;;34.53;18.60;;;;;;;11.38;87.00;100626.03;5085463;28;20471;-86
2022/11/15 04:07:00;;;;;;;33.17;17.73;;;;;;;11.38;86.98;100616.28;5070544;28;20050;-84
2022/11/15 04:09:25;;;;;;;31.42;18.40;;;;;;;11.39;87.02;100619.78;5069569;28;20609;-85
2022/11/15 04:11:50;;;;;;;30.48;17.85;;;;;;;11.46;87.30;100621.19;5087507;28;20111;-85
2022/11/15 04:14:16;;;;;;;37.10;18.83;;;;;;;11.40;86.99;100614.41;5067786;28;20050;-85
2022/11/15 04:16:41;;;;;;;29.05;16.75;;;;;;;11.48;86.24;100622.00;5066266;28;20036;-85
2022/11/15 04:24:34;;;;;;;31.02;17.75;;;;;;;11.43;86.82;100619.56;5084901;28;20035;-85
2022/11/15 04:27:00;;;;;;;33.40;18.17;;;;;;;11.38;86.52;100615.44;5069480;28;20395;-85
2022/11/15 04:29:34;;;;;;;34.60;19.15;;;;;;;11.41;87.12;100621.41;5085723;28;20032;-86
2022/11/15 04:32:01;;;;;;;33.15;17.90;;;;;;;11.46;86.57;100619.41;5087503;28;20493;-85
2022/11/15 04:34:26;;;;;;;33.60;17.92;;;;;;;11.49;86.68;100623.72;5064478;28;20035;-85
2022/11/15 04:39:35;;;;;;;33.85;16.95;;;;;;;11.49;86.34;100616.63;5078364;28;20109;-85
2022/11/15 04:42:00;;;;;;;29.20;17.52;;;;;;;11.52;86.59;100620.03;5086313;28;20032;-85
2022/11/15 04:44:26;;;;;;;32.17;17.67;;;;;;;11.49;86.75;100626.34;5066700;28;20027;-85
2022/11/15 04:46:51;;;;;;;26.90;16.20;;;;;;;11.39;86.86;100622.44;5063499;28;20028;-85
2022/11/15 04:49:16;;;;;;;28.60;16.80;;;;;;;11.44;86.80;100628.38;5066871;28;20127;-85
2022/11/15 04:51:42;;;;;;;29.20;16.83;;;;;;;11.42;86.77;100630.22;5067456;28;20040;-85
2022/11/15 04:54:07;;;;;;;29.92;16.45;;;;;;;11.46;87.07;100630.00;5065343;28;20032;-85
2022/11/15 04:56:32;;;;;;;31.08;15.68;;;;;;;11.43;86.87;100627.50;5064244;28;20487;-87
2022/11/15 04:58:57;;;;;;;26.95;16.92;;;;;;;11.43;87.29;100627.50;5084518;28;20024;-86
2022/11/15 05:01:23;;;;;;;32.83;17.02;;;;;;;11.52;86.37;100631.53;5069214;28;20478;-85
2022/11/15 05:06:31;;;;;;;29.17;16.55;;;;;;;11.35;86.99;100612.91;5082442;28;20069;-85
2022/11/15 05:08:57;;;;;;;28.20;16.20;;;;;;;11.52;86.40;100620.94;5081201;28;20024;-85
2022/11/15 05:11:22;;;;;;;33.33;15.88;;;;;;;11.44;87.25;100618.63;5086255;28;20368;-85
2022/11/15 05:13:48;;;;;;;25.85;15.95;;;;;;;11.42;87.17;100617.88;5085709;28;20024;-85
2022/11/15 05:16:13;;;;;;;31.27;17.75;;;;;;;11.35;87.32;100608.47;5087180;28;20095;-85
2022/11/15 05:18:41;;;;;;;29.23;15.52;;;;;;;11.43;86.79;100621.38;5087992;28;20032;-85
2022/11/15 05:21:10;;;;;;;27.20;16.25;;;;;;;11.46;86.99;100618.56;5087330;28;20062;-85
2022/11/15 05:23:35;;;;;;;26.30;16.55;;;;;;;11.43;86.99;100616.94;5089000;28;20047;-85
2022/11/15 05:26:05;;;;;;;29.10;16.02;;;;;;;11.51;87.07;100616.53;5086581;28;20491;-85
2022/11/15 05:28:32;;;;;;;27.55;16.60;;;;;;;11.47;87.26;100610.56;5069414;28;20076;-86
2022/11/15 05:31:05;;;;;;;33.70;18.05;;;;;;;11.51;87.50;100605.94;5070928;28;20051;-85
2022/11/15 05:33:31;;;;;;;28.98;17.40;;;;;;;11.48;87.30;100606.97;5090026;28;20429;-85
2022/11/15 05:36:04;;;;;;;25.33;15.90;;;;;;;11.53;86.79;100606.75;5070924;28;20048;-86
2022/11/15 05:38:30;;;;;;;26.95;16.35;;;;;;;11.42;87.00;100604.63;5089081;28;20028;-87
2022/11/15 05:40:55;;;;;;;26.15;16.08;;;;;;;11.42;87.09;100603.75;5089753;28;20020;-86
2022/11/15 05:43:22;;;;;;;30.73;17.45;;;;;;;11.46;86.97;100607.97;5062891;28;20040;-85
2022/11/15 05:45:47;;;;;;;29.20;17.52;;;;;;;11.38;86.92;100587.16;5061427;28;20035;-86
2022/11/15 05:48:14;;;;;;;26.75;15.52;;;;;;;11.46;87.44;100598.22;5083913;28;20076;-88
2022/11/15 05:50:43;;;;;;;26.33;15.98;;;;;;;11.48;87.46;100606.97;5083893;28;20024;-86
2022/11/15 05:53:10;;;;;;;24.02;15.68;;;;;;;11.41;87.63;100605.53;5070416;28;20063;-85
2022/11/15 05:55:38;;;;;;;29.98;16.27;;;;;;;11.48;87.33;100598.19;5063385;28;20318;-87
2022/11/15 05:58:04;;;;;;;24.85;15.80;;;;;;;11.67;86.31;100601.66;5087637;28;20077;-87
2022/11/15 06:00:29;;;;;;;26.48;15.63;;;;;;;11.62;86.60;100614.25;5067039;28;20024;-86
2022/11/15 06:02:54;;;;;;;27.83;15.50;;;;;;;11.58;86.80;100610.03;5073896;28;20028;-86
2022/11/15 06:05:19;;;;;;;29.10;16.08;;;;;;;11.49;87.28;100616.63;5069179;28;20036;-86
2022/11/15 06:07:45;;;;;;;29.38;16.08;;;;;;;11.49;87.43;100627.22;5083383;28;20040;-86
2022/11/15 06:10:10;;;;;;;26.80;15.75;;;;;;;11.47;87.26;100620.25;5069599;28;20114;-85
2022/11/15 06:12:35;;;;;;;27.70;16.13;;;;;;;11.51;87.93;100629.78;5082900;28;20032;-85
2022/11/15 06:15:01;;;;;;;25.48;15.40;;;;;;;11.52;87.80;100622.69;5086585;28;20031;-85
2022/11/15 06:17:26;;;;;;;26.60;15.68;;;;;;;11.55;87.67;100626.06;5087254;28;20502;-85
2022/11/15 06:19:51;;;;;;;27.45;15.10;;;;;;;11.54;87.40;100623.50;5070946;28;20093;-86
2022/11/15 06:22:16;;;;;;;25.08;15.68;;;;;;;11.67;87.20;100629.94;5072466;28;20065;-85
2022/11/15 06:24:43;;;;;;;31.42;18.17;;;;;;;11.74;87.84;100636.63;5067590;28;20093;-85
2022/11/15 06:27:10;;;;;;;30.77;17.48;;;;;;;11.70;87.12;100633.28;5086931;28;20028;-85
2022/11/15 06:29:35;;;;;;;25.58;16.25;;;;;;;11.74;86.82;100633.97;5087443;28;20614;-86
2022/11/15 06:32:00;;;;;;;28.70;15.40;;;;;;;11.76;86.83;100629.47;5069824;28;20028;-85
2022/11/15 06:34:25;;;;;;;23.05;14.85;;;;;;;11.68;87.11;100627.19;5069107;28;20055;-87
2022/11/15 06:36:51;;;;;;;30.45;16.65;;;;;;;11.71;87.28;100637.66;5087297;28;20030;-86
2022/11/15 06:39:16;;;;;;;26.52;16.98;;;;;;;11.71;87.22;100645.59;5085385;28;20028;-86
2022/11/15 06:41:41;;;;;;;27.52;16.17;;;;;;;11.72;87.02;100641.16;5064739;28;20029;-85
2022/11/15 06:44:07;;;;;;;27.15;16.85;;;;;;;11.73;87.01;100635.78;5086359;28;20016;-85
2022/11/15 06:46:32;;;;;;;28.90;17.58;;;;;;;11.72;87.42;100643.81;5068514;28;20107;-85
2022/11/15 06:48:57;;;;;;;28.80;16.70;;;;;;;11.71;86.43;100632.34;5069061;28;20067;-85
2022/11/15 06:51:22;;;;;;;30.42;18.02;;;;;;;11.70;86.21;100648.28;5060944;28;20028;-85
2022/11/15 06:53:48;;;;;;;27.45;16.17;;;;;;;11.68;86.49;100658.13;5088902;28;20115;-86
2022/11/15 06:56:13;;;;;;;28.42;15.90;;;;;;;11.70;86.59;100662.44;5060200;28;20475;-85
2022/11/15 06:58:38;;;;;;;30.40;14.35;;;;;;;11.63;85.99;100660.13;5069001;28;20028;-85
2022/11/15 07:01:06;;;;;;;24.05;13.88;;;;;;;11.60;86.22;100655.81;5086822;28;20506;-86
2022/11/15 07:03:34;;;;;;;20.90;12.80;;;;;;;11.56;85.53;100662.19;5069085;28;20490;-86
2022/11/15 07:06:00;;;;;;;21.67;13.70;;;;;;;11.51;85.66;100658.91;5085621;28;20020;-87
2022/11/15 07:08:28;;;;;;;23.40;12.55;;;;;;;11.45;85.65;100662.69;5064656;28;20098;-85
2022/11/15 07:10:53;;;;;;;21.35;12.63;;;;;;;11.40;85.57;100651.47;5082375;28;20024;-85
2022/11/15 07:13:18;;;;;;;18.20;12.32;;;;;;;11.42;85.82;100659.31;5087573;28;20032;-86
2022/11/15 07:15:44;;;;;;;19.80;12.68;;;;;;;11.45;85.44;100668.00;5085400;28;20035;-85
2022/11/15 07:18:09;;;;;;;23.48;12.15;;;;;;;11.42;85.14;100662.88;5086918;28;20460;-86
2022/11/15 07:20:35;;;;;;;18.50;12.18;;;;;;;11.39;85.25;100664.78;5066846;28;20038;-86
2022/11/15 07:23:05;;;;;;;21.50;12.57;;;;;;;11.45;85.14;100675.94;5086981;28;20122;-86
2022/11/15 07:25:31;;;;;;;24.70;12.15;;;;;;;11.49;85.08;100668.72;5085607;28;20031;-85
2022/11/15 07:27:57;;;;;;;18.95;11.75;;;;;;;11.52;85.39;100671.22;5066145;28;20043;-85
2022/11/15 07:30:23;;;;;;;20.85;12.63;;;;;;;11.52;84.93;100673.88;5086194;28;20482;-86
2022/11/15 07:32:56;;;;;;;21.83;12.70;;;;;;;11.50;84.95;100676.56;5089311;28;20035;-85
2022/11/15 07:35:22;;;;;;;21.02;13.18;;;;;;;11.46;85.18;100659.13;5066788;28;20020;-85
2022/11/15 07:38:14;;;;;;;22.48;12.70;;;;;;;11.62;84.96;100679.59;5063832;28;20493;-86
2022/11/15 07:40:40;;;;;;;;;;;;;;;11.68;83.77;100679.31;5061911;28;20040;-85
2022/11/15 07:43:06;;;;;;;19.17;11.40;;;;;;;11.61;84.83;100672.56;5068336;28;19977;-85
2022/11/15 07:45:35;;;;;;;25.85;13.27;;;;;;;11.55;84.58;100656.97;5063248;28;20028;-85
2022/11/15 07:48:00;;;;;;;21.80;12.00;;;;;;;11.63;84.67;100660.13;5066452;28;20063;-85
2022/11/15 07:50:27;;;;;;;20.83;12.00;;;;;;;11.62;84.84;100651.34;5088055;28;20474;-85
2022/11/15 07:52:57;;;;;;;20.45;12.95;;;;;;;11.64;84.57;100656.53;5073102;28;20487;-85
2022/11/15 07:55:24;;;;;;;21.88;12.45;;;;;;;11.73;83.95;100659.59;5068676;28;20032;-85
2022/11/15 07:57:49;;;;;;;20.13;12.90;;;;;;;12.24;81.74;100659.81;5083373;28;20107;-87
2022/11/15 08:00:15;;;;;;;24.45;13.98;;;;;;;11.69;83.35;100655.38;5081541;28;20031;-87
2022/11/15 08:02:41;;;;;;;22.70;12.95;;;;;;;12.11;82.38;100646.31;5086734;28;20035;-87
2022/11/15 08:05:07;;;;;;;21.15;12.45;;;;;;;11.73;83.02;100653.47;5084669;28;20070;-88
2022/11/15 08:07:33;;;;;;;24.92;12.07;;;;;;;11.64;83.51;100664.50;5086119;28;20040;-87
2022/11/15 08:09:58;;;;;;;20.92;11.77;;;;;;;11.61;83.06;100664.63;5088966;28;20522;-87
2022/11/15 08:12:24;;;;;;;19.38;12.52;;;;;;;11.58;83.72;100668.28;5069873;28;20130;-87
2022/11/15 08:14:50;;;;;;;18.65;11.20;;;;;;;11.68;83.40;100676.66;5084878;28;20097;-88
2022/11/15 08:17:15;;;;;;;17.92;10.02;;;;;;;11.68;82.98;100674.00;5085257;28;20027;-88
2022/11/15 08:19:40;;;;;;;16.83;9.85;;;;;;;11.74;83.46;100689.59;5070478;28;20115;-88
2022/11/15 08:22:06;;;;;;;15.88;9.13;;;;;;;11.61;83.21;100680.50;5088480;28;20024;-88
2022/11/15 08:24:31;;;;;;;13.20;9.02;;;;;;;11.64;82.62;100673.28;5086687;28;20017;-89
2022/11/15 08:26:57;;;;;;;16.45;8.93;;;;;;;11.61;82.82;100662.84;5088306;28;20024;-88
2022/11/15 08:29:22;;;;;;;15.10;9.00;;;;;;;11.73;82.82;100678.16;5070015;28;20444;-88
2022/11/15 08:31:47;;;;;;;13.82;9.55;;;;;;;11.81;82.71;100675.16;5083212;28;20032;-88
2022/11/15 08:34:12;;;;;;;15.20;9.43;;;;;;;11.81;81.83;100667.19;5089606;28;20039;-89
2022/11/15 08:36:38;;;;;;;18.15;8.77;;;;;;;11.82;82.06;100661.00;5079493;28;20479;-88
2022/11/15 08:39:03;;;;;;;14.13;9.25;;;;;;;11.80;82.54;100669.91;5083994;28;20055;-88
2022/11/15 08:41:35;;;;;;;12.98;8.50;;;;;;;11.79;82.53;100658.44;5082588;28;20517;-89
2022/11/15 08:44:01;;;;;;;11.50;7.80;;;;;;;11.95;81.71;100650.66;5086124;28;20107;-88
2022/11/15 08:46:26;;;;;;;13.18;8.77;;;;;;;12.04;81.89;100650.22;5067376;28;20035;-88
2022/11/15 08:48:52;;;;;;;9.77;7.50;;;;;;;12.30;80.62;100651.56;5056336;28;20604;-88
2022/11/15 08:51:17;;;;;;;9.95;6.68;;;;;;;12.21;79.75;100631.66;5066858;28;20025;-85
2022/11/15 08:53:42;;;;;;;11.27;6.88;;;;;;;12.39;80.23;100634.34;5071615;28;20020;-89
2022/11/15 08:56:09;;;;;;;10.20;6.85;;;;;;;12.69;78.63;100640.72;5086923;28;20020;-87
2022/11/15 08:58:36;;;;;;;11.27;7.13;;;;;;;12.85;78.41;100645.22;5068348;28;20032;-88
2022/11/15 09:01:02;;;;;;;7.72;5.45;;;;;;;13.00;76.93;100639.94;5091015;28;20032;-87
2022/11/15 09:03:27;;;;;;;10.07;6.88;;;;;;;13.33;76.87;100651.50;5071023;28;20444;-87
2022/11/15 09:05:57;;;;;;;8.27;5.53;;;;;;;13.75;75.18;100629.66;5088321;28;20059;-87
2022/11/15 09:08:23;;;;;;;8.07;5.55;;;;;;;14.58;71.50;100635.50;5074144;28;20032;-87
2022/11/15 09:10:49;;;;;;;8.73;5.40;;;;;;;15.45;68.34;100630.09;5077549;28;20040;-88
2022/11/15 09:13:14;;;;;;;6.82;4.72;;;;;;;15.56;66.28;100624.94;5093558;28;20035;-87
2022/11/15 09:15:39;;;;;;;5.20;4.03;;;;;;;14.83;68.35;100614.47;5086175;28;20023;-88
2022/11/15 09:18:05;;;;;;;5.80;4.20;;;;;;;14.26;69.79;100631.13;5089076;28;20495;-86
2022/11/15 09:20:30;;;;;;;6.78;4.20;;;;;;;13.98;71.00;100615.91;5092282;28;20058;-87
2022/11/15 09:22:59;;;;;;;5.75;4.10;;;;;;;13.68;71.99;100599.09;5074541;28;20671;-87
2022/11/15 09:25:25;;;;;;;5.10;3.67;;;;;;;13.45;73.16;100589.75;5084406;28;20384;-88
2022/11/15 09:27:50;;;;;;;5.10;3.83;;;;;;;13.33;73.72;100599.25;5080789;28;20028;-87
2022/11/15 09:30:15;;;;;;;7.78;4.18;;;;;;;13.21;74.17;100598.13;5062020;28;20020;-89
2022/11/15 09:32:41;;;;;;;6.30;3.92;;;;;;;13.43;73.38;100588.97;5085888;28;20028;-87
2022/11/15 09:35:06;;;;;;;6.88;4.05;;;;;;;13.35;73.41;100608.00;5091581;28;20017;-88
2022/11/15 09:37:32;;;;;;;6.50;4.47;;;;;;;13.84;72.48;100601.72;5087183;28;20028;-87
2022/11/15 09:39:57;;;;;;;5.22;4.40;;;;;;;14.75;70.98;100604.28;5090468;28;20110;-88
2022/11/15 09:42:38;;;;;;;6.43;4.13;;;;;;;15.77;65.02;100588.94;5091401;28;20032;-87
2022/11/15 09:45:17;;;;;;;7.50;3.00;;;;;;;16.33;63.82;100594.94;5089342;28;20017;-87
2022/11/15 09:48:08;;;;;;;4.72;3.05;;;;;;;16.83;60.24;100616.47;5089895;28;20064;-88
2022/11/15 09:50:37;;;;;;;4.47;3.28;;;;;;;16.89;59.79;100601.84;5072280;28;20030;-87
2022/11/15 09:53:03;;;;;;;3.90;2.58;;;;;;;17.78;56.24;100596.31;5085067;28;20034;-88
2022/11/15 09:55:40;;;;;;;5.88;2.50;;;;;;;18.21;54.22;100610.00;5090390;28;20016;-87
2022/11/15 09:58:44;;;;;;;2.83;2.10;;;;;;;19.58;52.03;100602.81;5080182;28;20043;-87
2022/11/15 10:01:19;;;;;;;2.78;1.80;;;;;;;19.66;51.53;100591.50;5029081;28;20059;-87
2022/11/15 10:03:45;;;;;;;5.22;2.15;;;;;;;19.74;48.75;100597.09;5090389;28;20043;-87
2022/11/15 10:06:22;;;;;;;4.18;1.77;;;;;;;20.41;48.18;100595.94;5070415;28;20534;-86
2022/11/15 10:09:13;;;;;;;2.38;1.20;;;;;;;20.30;46.54;100589.66;5063020;28;20042;-86
2022/11/15 10:11:40;;;;;;;3.63;1.33;;;;;;;20.76;43.36;100585.72;5063589;28;20034;-87
2022/11/15 10:14:27;;;;;;;1.77;1.10;;;;;;;20.38;46.92;100583.63;5087977;28;20107;-87
2022/11/15 10:17:11;;;;;;;2.03;1.13;;;;;;;20.41;43.23;100585.19;5085892;28;20036;-87
2022/11/15 10:19:56;;;;;;;2.83;0.80;;;;;;;20.13;45.19;100571.41;5086999;28;20479;-87
2022/11/15 10:22:26;;;;;;;2.53;1.10;;;;;;;19.11;44.80;100581.53;5061452;28;20020;-86
2022/11/15 10:25:12;;;;;;;1.55;1.17;;;;;;;18.65;46.58;100578.94;5057253;28;20403;-87
2022/11/15 10:27:42;;;;;;;2.75;0.90;;;;;;;17.88;48.31;100583.09;5067104;28;20039;-87
2022/11/15 10:30:13;;;;;;;1.58;1.38;;;;;;;16.89;50.78;100569.81;5065041;28;20490;-87
2022/11/15 10:32:41;;;;;;;3.58;1.13;;;;;;;16.20;51.57;100580.72;5084767;28;20032;-87
2022/11/15 10:35:23;;;;;;;2.58;0.90;;;;;;;15.85;52.61;100558.25;5084970;28;20055;-88
2022/11/15 10:37:49;;;;;;;2.55;1.15;;;;;;;15.78;54.03;100561.31;5085306;28;20032;-88
2022/11/15 10:40:21;;;;;;;3.42;1.20;;;;;;;16.08;51.60;100545.06;5088041;28;20024;-87
2022/11/15 10:42:47;;;;;;;4.40;0.93;;;;;;;16.63;50.42;100532.41;5085831;28;20067;-87
2022/11/15 10:45:24;;;;;;;2.78;0.98;;;;;;;17.17;50.43;100544.66;5088242;28;20020;-87
2022/11/15 10:47:49;;;;;;;2.70;1.10;;;;;;;17.77;47.06;100550.00;5089989;28;20151;-87
2022/11/15 10:50:30;;;;;;;3.75;0.90;;;;;;;18.39;47.69;100545.31;5073281;28;20086;-87
2022/11/15 10:52:56;;;;;;;3.95;1.00;;;;;;;18.68;45.86;100529.66;5087010;28;20031;-87
2022/11/15 10:55:27;;;;;;;3.13;1.10;;;;;;;18.68;45.64;100518.94;5070215;28;20067;-89
2022/11/15 10:57:56;;;;;;;1.70;0.95;;;;;;;19.27;43.15;100532.94;5084009;28;20017;-88
2022/11/15 11:00:32;;;;;;;1.92;0.90;;;;;;;18.93;44.77;100528.56;5090547;28;20108;-87
2022/11/15 11:02:59;;;;;;;2.38;0.90;;;;;;;19.99;44.03;100532.31;5087265;28;20024;-87
2022/11/15 11:05:34;;;;;;;0.90;0.80;;;;;;;21.37;41.33;100520.31;5071266;28;20051;-87
2022/11/15 11:08:03;;;;;;;1.73;0.90;;;;;;;21.80;38.85;100528.00;5086773;28;20028;-87
2022/11/15 11:10:29;;;;;;;4.53;1.10;;;;;;;21.34;39.08;100515.22;5064482;28;20221;-88
2022/11/15 11:12:54;;;;;;;3.08;1.10;;;;;;;22.14;38.43;100509.56;5086991;28;20024;-88
2022/11/15 11:15:22;;;;;;;2.22;1.00;;;;;;;21.76;38.07;100512.28;5086000;28;20020;-87
2022/11/15 11:17:58;;;;;;;3.80;1.00;;;;;;;22.61;37.94;100500.66;5086067;28;20035;-87
2022/11/15 11:20:58;;;;;;;3.92;0.90;;;;;;;22.24;37.46;100511.41;5086407;28;20107;-88
2022/11/15 11:23:52;;;;;;;5.15;1.35;;;;;;;20.76;39.81;100502.44;5064712;28;20423;-87
2022/11/15 11:26:40;;;;;;;5.47;1.20;;;;;;;20.08;41.78;100491.28;5087294;28;20028;-87
2022/11/15 11:29:38;;;;;;;3.22;1.13;;;;;;;20.09;41.12;100492.13;5072261;28;20204;-87
2022/11/15 11:32:26;;;;;;;4.25;1.20;;;;;;;19.42;43.62;100466.47;5081430;28;20099;-89
2022/11/15 11:35:02;;;;;;;6.43;1.30;;;;;;;19.48;43.62;100474.00;5065766;28;20028;-88
2022/11/15 11:38:00;;;;;;;2.03;0.82;;;;;;;19.56;43.01;100460.81;5068655;28;20028;-88
2022/11/15 11:40:34;;;;;;;3.72;0.95;;;;;;;19.70;43.02;100456.16;5060887;28;20540;-88